Monday, August 3, 2015, 7:19 PM EDT

KGED, Georgetown Sussex Co Airport

Location: Georgetown, DE, United States Lat: 38.683
Local Time: 7:19 PM EDT (23:19 GMT) Lon: -75.367
Time Zone: US/Eastern Elev: 52 ft

Show me the last for .
Show Decoded

2015-08-03 18:54 METAR KGED 032254Z AUTO 23010KT 10SM CLR 31/21 A2984 RMK AO2 SLP103 T03060206 =
2015-08-03 17:54 METAR KGED 032154Z AUTO 22011KT 10SM CLR 31/18 A2984 RMK AO2 SLP103 T03110183 =
2015-08-03 16:54 METAR KGED 032054Z AUTO 20014KT 10SM CLR 32/18 A2983 RMK AO2 SLP101 T03170178
                 58009 =
2015-08-03 15:54 METAR KGED 031954Z AUTO 22010KT 10SM CLR 32/17 A2985 RMK AO2 SLP107 T03220172 =
2015-08-03 14:54 METAR KGED 031854Z AUTO 25007KT 220V300 10SM CLR 32/17 A2986 RMK AO2 SLP109
                 T03220167 =
2015-08-03 13:54 METAR KGED 031754Z AUTO 22013KT 10SM CLR 32/15 A2986 RMK AO2 SLP111 T03170150
                 10317 20233 56015 =
2015-08-03 12:54 METAR KGED 031654Z AUTO 23009KT 10SM CLR 31/17 A2987 RMK AO2 SLP115 T03110172 =
2015-08-03 11:54 METAR KGED 031554Z AUTO 20011KT 10SM CLR 30/18 A2989 RMK AO2 SLP119 T03000178 =
2015-08-03 10:54 METAR KGED 031454Z AUTO 25009KT 10SM CLR 29/19 A2991 RMK AO2 SLP126 T02940189
                 52001 =
2015-08-03 09:54 METAR KGED 031354Z AUTO 22009KT 10SM CLR 28/20 A2991 RMK AO2 SLP127 T02830200 =
2015-08-03 07:54 METAR KGED 031154Z AUTO 21006KT 9SM CLR 23/21 A2990 RMK AO2 SLP125 T02330211
                 10233 20183 53006 =
2015-08-03 06:54 METAR KGED 031054Z AUTO 5SM BR CLR 21/19 A2989 RMK AO2 SLP122 T02060194 =
2015-08-03 05:54 METAR KGED 030954Z AUTO 00000KT 6SM BR CLR 19/18 A2989 RMK AO2 SLP120 T01940183
                 =
2015-08-03 05:10 METAR KGED 030910Z AUTO 00000KT 5SM BR CLR 19/18 A2988 RMK AO2 T01940183 =
2015-08-03 04:54 METAR KGED 030854Z AUTO 00000KT 1SM BR CLR 19/18 A2989 RMK AO2 SLP119 T01890183
                 56005 =
2015-08-03 04:52 METAR KGED 030852Z AUTO 00000KT 1 1/2SM BR CLR 19/19 A2988 RMK AO2 =
2015-08-03 03:54 METAR KGED 030754Z AUTO 00000KT 4SM BR CLR 19/19 A2989 RMK AO2 SLP120 T01940189
                 =
2015-08-03 03:01 METAR KGED 030701Z AUTO 00000KT 3SM BR CLR 19/19 A2989 RMK AO2 T01940189 =
2015-08-03 02:54 METAR KGED 030654Z AUTO 00000KT 1 3/4SM BR CLR 19/19 A2989 RMK AO2 SLP120
                 T01940189 =
2015-08-03 01:54 METAR KGED 030554Z AUTO 00000KT 7SM CLR 21/20 A2990 RMK AO2 SLP124 T02110200
                 10256 20206 57008 =
2015-08-03 00:54 METAR KGED 030454Z AUTO 21003KT 8SM CLR 21/20 A2991 RMK AO2 SLP127 T02110200
                 403110194 =
2015-08-02 23:54 METAR KGED 030354Z AUTO 00000KT 9SM CLR 21/19 A2992 RMK AO2 SLP129 T02060194 =
2015-08-02 22:54 METAR KGED 030254Z AUTO 00000KT 10SM CLR 21/19 A2992 RMK AO2 SLP132 T02110194
                 50004 =
2015-08-02 21:54 METAR KGED 030154Z AUTO 00000KT 10SM CLR 22/19 A2993 RMK AO2 SLP136 T02170194 =
2015-08-02 20:54 METAR KGED 030054Z AUTO 21003KT 10SM CLR 24/19 A2992 RMK AO2 SLP130 T02390194 =
2015-08-02 19:54 METAR KGED 022354Z AUTO 18005KT 10SM CLR 26/18 A2991 RMK AO2 SLP129 T02560183
                 10311 20256 57006 =

Support USWX by starting your Amazon purchase here.